createdAt,value
2023-03-03T00:00:33.259Z,99480.37
2023-03-03T00:01:37.357Z,99477.23
2023-03-03T00:02:41.604Z,99485.61
2023-03-03T00:03:46.073Z,99482.86
2023-03-03T00:04:50.344Z,99482.22
2023-03-03T00:05:54.509Z,99474.19
2023-03-03T00:06:58.729Z,99479.84
2023-03-03T00:08:02.839Z,99478.09
2023-03-03T00:09:06.992Z,99480.66
2023-03-03T00:10:11.092Z,99467.97
2023-03-03T00:11:15.209Z,99474.14
2023-03-03T00:12:19.322Z,99477.05
2023-03-03T00:13:23.440Z,99478.88
2023-03-03T00:14:27.600Z,99474.14
2023-03-03T00:15:31.718Z,99478.47
2023-03-03T00:16:35.787Z,99469.08
2023-03-03T00:17:39.871Z,99476.31
2023-03-03T00:18:43.982Z,99476.31
2023-03-03T00:19:48.103Z,99473.81
2023-03-03T00:20:52.232Z,99477.01
2023-03-03T00:21:56.341Z,99480.09
2023-03-03T00:23:00.446Z,99481.44
2023-03-03T00:24:04.560Z,99478.31
2023-03-03T00:25:08.707Z,99479.8
2023-03-03T00:26:12.804Z,99477.15
2023-03-03T00:27:16.940Z,99474.81
2023-03-03T00:28:21.044Z,99471.95
2023-03-03T00:29:25.149Z,99479.98
2023-03-03T00:30:29.263Z,99483.25
2023-03-03T00:31:33.552Z,99475.28
2023-03-03T00:32:37.863Z,99478.83
2023-03-03T00:33:41.967Z,99478
2023-03-03T00:34:46.075Z,99480.05
2023-03-03T00:35:50.344Z,99475.11
2023-03-03T00:36:54.567Z,99477.59
2023-03-03T00:37:58.690Z,99474.17
2023-03-03T00:39:02.772Z,99471.91
2023-03-03T00:40:06.877Z,99474.98
2023-03-03T00:41:10.987Z,99474.17
2023-03-03T00:42:15.120Z,99471.27
2023-03-03T00:43:19.240Z,99472.5
2023-03-03T00:44:23.347Z,99465.76
2023-03-03T00:45:27.468Z,99464.16
2023-03-03T00:46:31.808Z,99460.97
2023-03-03T00:47:36.046Z,99465.58
2023-03-03T00:48:40.153Z,99463.08
2023-03-03T00:49:44.238Z,99459.99
2023-03-03T00:50:48.351Z,99461.25
2023-03-03T00:51:52.468Z,99455.75
2023-03-03T00:52:56.577Z,99454.97
2023-03-03T00:54:00.749Z,99451.14
2023-03-03T00:55:04.888Z,99457.31
2023-03-03T00:56:08.989Z,99439.56
2023-03-03T00:57:13.109Z,99438.64
2023-03-03T00:58:17.220Z,99442.7
2023-03-03T00:59:21.322Z,99449.8
2023-03-03T01:00:25.417Z,99447.72
2023-03-03T01:01:29.604Z,99442.36
2023-03-03T01:02:33.880Z,99444.22
2023-03-03T01:03:38.127Z,99445.25
2023-03-03T01:04:42.246Z,99445.56
2023-03-03T01:05:46.372Z,99433.47
2023-03-03T01:06:50.498Z,99437.3
2023-03-03T01:07:54.599Z,99435.96
2023-03-03T01:08:58.713Z,99447.78
2023-03-03T01:10:02.817Z,99436.95
2023-03-03T01:11:06.962Z,99434.27
2023-03-03T01:12:11.069Z,99437.36
2023-03-03T01:13:15.157Z,99437.77
2023-03-03T01:14:19.417Z,99440.5
2023-03-03T01:15:23.582Z,99440.97
2023-03-03T01:16:27.843Z,99435.09
2023-03-03T01:17:32.122Z,99437.18
2023-03-03T01:18:36.261Z,99435.51
2023-03-03T01:19:40.375Z,99433.68
2023-03-03T01:20:44.554Z,99435.51
2023-03-03T01:21:48.687Z,99423.94
2023-03-03T01:22:52.884Z,99423.23
2023-03-03T01:23:57.018Z,99424.97
2023-03-03T01:25:01.374Z,99429.33
2023-03-03T01:26:05.529Z,99427.17
2023-03-03T01:27:09.669Z,99423.52
2023-03-03T01:28:13.791Z,99430.11
2023-03-03T01:29:17.894Z,99428.87
2023-03-03T01:30:22.004Z,99433.08
2023-03-03T01:31:26.335Z,99426.2
2023-03-03T01:32:30.761Z,99428.06
2023-03-03T01:33:34.976Z,99424.52
2023-03-03T01:34:39.067Z,99435.27
2023-03-03T01:35:43.334Z,99429.95
2023-03-03T01:36:47.503Z,99434.94
2023-03-03T01:37:51.654Z,99433.7
2023-03-03T01:38:55.835Z,99433.59
2023-03-03T01:39:59.954Z,99428.58
2023-03-03T01:41:04.046Z,99435.69
2023-03-03T01:42:08.176Z,99428.1
2023-03-03T01:43:12.281Z,99434.78
2023-03-03T01:44:16.439Z,99432.59
2023-03-03T01:45:20.550Z,99430.03
2023-03-03T01:46:24.808Z,99430.63
2023-03-03T01:47:29.012Z,99430.37
2023-03-03T01:48:33.139Z,99432.94
2023-03-03T01:49:37.283Z,99425.45
2023-03-03T01:50:41.393Z,99419.25
2023-03-03T01:51:45.501Z,99427.98
2023-03-03T01:52:49.614Z,99428.95
2023-03-03T01:53:53.745Z,99422.14
2023-03-03T01:54:57.884Z,99423.93
2023-03-03T01:56:02.148Z,99417.75
2023-03-03T01:57:06.308Z,99425.11
2023-03-03T01:58:10.414Z,99425.34
2023-03-03T01:59:14.550Z,99427.42
2023-03-03T02:00:18.694Z,99424.11
2023-03-03T02:01:23.189Z,99435.91
2023-03-03T02:02:27.462Z,99432.03
2023-03-03T02:03:31.648Z,99431.88
2023-03-03T02:04:35.733Z,99433.74
2023-03-03T02:05:39.861Z,99430.47
2023-03-03T02:06:43.994Z,99426.62
2023-03-03T02:07:48.091Z,99434.33
2023-03-03T02:08:52.176Z,99431.45
2023-03-03T02:09:56.302Z,99431.02
2023-03-03T02:11:00.412Z,99430.63
2023-03-03T02:12:04.548Z,99426.5
2023-03-03T02:13:08.674Z,99431.27
2023-03-03T02:14:12.788Z,99431.3
2023-03-03T02:15:16.901Z,99429.58
2023-03-03T02:16:21.275Z,99431.13
2023-03-03T02:17:25.497Z,99423.2
2023-03-03T02:18:29.639Z,99425.17
2023-03-03T02:19:33.742Z,99421.55
2023-03-03T02:20:37.864Z,99420.02
2023-03-03T02:21:42.036Z,99427.24
2023-03-03T02:22:46.126Z,99426.23
2023-03-03T02:23:50.232Z,99424.4
2023-03-03T02:24:54.423Z,99427.9
2023-03-03T02:26:00.276Z,99428.97
2023-03-03T02:27:04.414Z,99425.98
2023-03-03T02:28:08.565Z,99423.59
2023-03-03T02:29:12.700Z,99426.03
2023-03-03T02:30:16.812Z,99431.13
2023-03-03T02:31:20.990Z,99421.52
2023-03-03T02:32:25.328Z,99428.55
2023-03-03T02:33:29.571Z,99430.73
2023-03-03T02:34:33.699Z,99425.2
2023-03-03T02:35:37.881Z,99425.5
2023-03-03T02:36:42.150Z,99421.99
2023-03-03T02:37:46.326Z,99409.02
2023-03-03T02:38:50.496Z,99418.09
2023-03-03T02:39:54.583Z,99411.7
2023-03-03T02:40:58.678Z,99410.27
2023-03-03T02:42:02.796Z,99410.36
2023-03-03T02:43:06.964Z,99415.34
2023-03-03T02:44:11.096Z,99410.89
2023-03-03T02:45:15.187Z,99408.53
2023-03-03T02:46:19.291Z,99419.58
2023-03-03T02:47:23.395Z,99411.73
2023-03-03T02:48:27.560Z,99410.17
2023-03-03T02:49:31.665Z,99416.9
2023-03-03T02:50:35.746Z,99420.42
2023-03-03T02:51:39.907Z,99413.69
2023-03-03T02:52:43.990Z,99419.91
2023-03-03T02:53:48.103Z,99415.77
2023-03-03T02:54:52.203Z,99427.33
2023-03-03T02:55:56.295Z,99422.38
2023-03-03T02:57:00.388Z,99427.11
2023-03-03T02:58:04.499Z,99423.72
2023-03-03T02:59:08.613Z,99419.55
2023-03-03T03:00:12.776Z,99418.53
2023-03-03T03:01:17.054Z,99428.11
2023-03-03T03:02:21.244Z,99418.48
2023-03-03T03:03:25.435Z,99420.05
2023-03-03T03:04:29.733Z,99418.19
2023-03-03T03:05:33.929Z,99426.62
2023-03-03T03:06:38.048Z,99414.12
2023-03-03T03:07:42.146Z,99417.34
2023-03-03T03:08:46.257Z,99421.45
2023-03-03T03:09:50.406Z,99414.86
2023-03-03T03:10:54.524Z,99412.08
2023-03-03T03:11:58.634Z,99410.88
2023-03-03T03:13:02.749Z,99412.73
2023-03-03T03:14:06.848Z,99413.16
2023-03-03T03:15:11.012Z,99413.78
2023-03-03T03:16:15.246Z,99415.45
2023-03-03T03:17:19.504Z,99418.45
2023-03-03T03:18:23.582Z,99413.5
2023-03-03T03:19:27.678Z,99423.73
2023-03-03T03:20:31.801Z,99420.64
2023-03-03T03:21:35.920Z,99422.52
2023-03-03T03:22:40.020Z,99416.24
2023-03-03T03:23:44.121Z,99425.34
2023-03-03T03:24:48.269Z,99423.98
2023-03-03T03:25:52.395Z,99430.72
2023-03-03T03:26:56.491Z,99432.36
2023-03-03T03:28:00.595Z,99426.48
2023-03-03T03:29:04.915Z,99425.33
2023-03-03T03:30:09.050Z,99421.91
2023-03-03T03:31:13.265Z,99421.4
2023-03-03T03:32:17.443Z,99427.06
2023-03-03T03:33:21.675Z,99422.95
2023-03-03T03:34:25.791Z,99420.85
2023-03-03T03:35:30.013Z,99420.33
2023-03-03T03:36:34.161Z,99418.77
2023-03-03T03:37:38.261Z,99417.74
2023-03-03T03:38:42.338Z,99419
2023-03-03T03:39:46.431Z,99413.83
2023-03-03T03:40:50.545Z,99413.83
2023-03-03T03:41:54.680Z,99408.33
2023-03-03T03:42:58.853Z,99409.49
2023-03-03T03:44:02.962Z,99416.3
2023-03-03T03:45:07.077Z,99405.77
2023-03-03T03:46:11.341Z,99411.28
2023-03-03T03:47:15.531Z,99408.47
2023-03-03T03:48:19.636Z,99413.86
2023-03-03T03:49:23.808Z,99412.84
2023-03-03T03:50:27.900Z,99412.63
2023-03-03T03:51:31.991Z,99412.55
2023-03-03T03:52:36.099Z,99415.22
2023-03-03T03:53:40.196Z,99416.69
2023-03-03T03:54:44.420Z,99417.84
2023-03-03T03:55:48.583Z,99409.78
2023-03-03T03:56:52.679Z,99414.84
2023-03-03T03:57:56.835Z,99408.02
2023-03-03T03:59:00.960Z,99408.14
2023-03-03T04:00:05.053Z,99414.55
2023-03-03T04:01:09.202Z,99402.97
2023-03-03T04:02:13.536Z,99415.78
2023-03-03T04:03:18.181Z,99421.15
2023-03-03T04:04:22.550Z,99415.68
2023-03-03T04:05:26.687Z,99422.72
2023-03-03T04:06:30.831Z,99428.91
2023-03-03T04:07:34.933Z,99425.19
2023-03-03T04:08:39.055Z,99419.63
2023-03-03T04:09:43.201Z,99421.36
2023-03-03T04:10:47.313Z,99421.67
2023-03-03T04:11:51.431Z,99414.34
2023-03-03T04:12:55.529Z,99417.94
2023-03-03T04:13:59.639Z,99407.31
2023-03-03T04:15:03.779Z,99409.58
2023-03-03T04:16:08.170Z,99410.17
2023-03-03T04:17:12.394Z,99403.56
2023-03-03T04:18:16.505Z,99408.2
2023-03-03T04:19:20.641Z,99411.62
2023-03-03T04:20:24.733Z,99409.03
2023-03-03T04:21:28.845Z,99411.05
2023-03-03T04:22:32.940Z,99408.19
2023-03-03T04:23:37.075Z,99401.87
2023-03-03T04:24:41.198Z,99405.98
2023-03-03T04:25:45.321Z,99403.08
2023-03-03T04:26:49.419Z,99395.86
2023-03-03T04:27:53.557Z,99400.41
2023-03-03T04:28:57.673Z,99392.64
2023-03-03T04:30:01.802Z,99395.22
2023-03-03T04:31:06.014Z,99405.43
2023-03-03T04:32:10.355Z,99400.07
2023-03-03T04:33:14.558Z,99403.88
2023-03-03T04:34:18.652Z,99400.84
2023-03-03T04:35:22.900Z,99402.5
2023-03-03T04:36:27.095Z,99416.54
2023-03-03T04:37:31.229Z,99418.48
2023-03-03T04:38:35.331Z,99412.27
2023-03-03T04:39:39.425Z,99421.47
2023-03-03T04:40:43.548Z,99423.45
2023-03-03T04:41:47.684Z,99410.5
2023-03-03T04:42:51.832Z,99411.55
2023-03-03T04:43:55.953Z,99422.16
2023-03-03T04:45:00.078Z,99418.25
2023-03-03T04:46:04.265Z,99421.95
2023-03-03T04:47:08.507Z,99419.98
2023-03-03T04:48:12.617Z,99415.66
2023-03-03T04:49:16.717Z,99417.5
2023-03-03T04:50:20.821Z,99420.78
2023-03-03T04:51:24.939Z,99427.7
2023-03-03T04:52:29.036Z,99424.8
2023-03-03T04:53:33.147Z,99414.95
2023-03-03T04:54:37.369Z,99419.33
2023-03-03T04:55:41.511Z,99420.72
2023-03-03T04:56:45.635Z,99415.33
2023-03-03T04:57:49.768Z,99425.05
2023-03-03T04:58:53.887Z,99407.78
2023-03-03T04:59:58.045Z,99413.15
2023-03-03T05:01:02.166Z,99417.09
2023-03-03T05:02:06.376Z,99416.19
2023-03-03T05:03:10.489Z,99417.61
2023-03-03T05:04:14.601Z,99422.04
2023-03-03T05:05:18.800Z,99422.7
2023-03-03T05:06:22.936Z,99421.77
2023-03-03T05:07:27.039Z,99426.61
2023-03-03T05:08:31.209Z,99419.55
2023-03-03T05:09:35.351Z,99416.45
2023-03-03T05:10:39.467Z,99424.41
2023-03-03T05:11:43.640Z,99419.79
2023-03-03T05:12:47.718Z,99426.11
2023-03-03T05:13:51.803Z,99419.7
2023-03-03T05:14:55.904Z,99433.66
2023-03-03T05:16:00.344Z,99426.62
2023-03-03T05:17:04.524Z,99427.55
2023-03-03T05:18:08.661Z,99428.87
2023-03-03T05:19:12.789Z,99431.77
2023-03-03T05:20:16.913Z,99426.3
2023-03-03T05:21:21.036Z,99432.19
2023-03-03T05:22:25.158Z,99434.38
2023-03-03T05:23:29.282Z,99428.89
2023-03-03T05:24:33.388Z,99420.83
2023-03-03T05:25:37.467Z,99423.86
2023-03-03T05:26:41.581Z,99425.92
2023-03-03T05:27:45.740Z,99429.42
2023-03-03T05:28:49.858Z,99431.41
2023-03-03T05:29:53.969Z,99424.18
2023-03-03T05:30:58.144Z,99421.61
2023-03-03T05:32:02.523Z,99429.16
2023-03-03T05:33:06.756Z,99418.51
2023-03-03T05:34:10.883Z,99426.38
2023-03-03T05:35:14.993Z,99426.91
2023-03-03T05:36:19.125Z,99431.03
2023-03-03T05:37:23.211Z,99434.54
2023-03-03T05:38:27.302Z,99434.54
2023-03-03T05:39:31.448Z,99393.14
2023-03-03T05:40:35.553Z,99438.27
2023-03-03T05:41:39.674Z,99422.73
2023-03-03T05:42:43.882Z,99394.67
2023-03-03T05:43:48.180Z,99432.56
2023-03-03T05:44:52.363Z,99436.56
2023-03-03T05:45:56.518Z,99440.28
2023-03-03T05:47:00.631Z,99445.33
2023-03-03T05:48:04.741Z,99449.65
2023-03-03T05:49:08.835Z,99450.47
2023-03-03T05:50:12.940Z,99445.6
2023-03-03T05:51:17.043Z,99461.81
2023-03-03T05:52:21.166Z,99457.56
2023-03-03T05:53:25.322Z,99462.19
2023-03-03T05:54:29.445Z,99459.29
2023-03-03T05:55:33.589Z,99461.16
2023-03-03T05:56:37.712Z,99453.8
2023-03-03T05:57:41.906Z,99454.86
2023-03-03T05:58:46.020Z,99453.19
2023-03-03T05:59:50.121Z,99460.5
2023-03-03T06:00:54.239Z,99465.97
2023-03-03T06:01:58.610Z,99464.41
2023-03-03T06:03:03.001Z,99460.34
2023-03-03T06:04:07.258Z,99451.98
2023-03-03T06:05:11.352Z,99467.97
2023-03-03T06:06:15.492Z,99464.47
2023-03-03T06:07:19.613Z,99463.7
2023-03-03T06:08:23.759Z,99469.99
2023-03-03T06:09:27.893Z,99466.57
2023-03-03T06:10:32.037Z,99472.56
2023-03-03T06:11:36.164Z,99465.53
2023-03-03T06:12:40.301Z,99472.42
2023-03-03T06:13:44.467Z,99464.61
2023-03-03T06:14:48.582Z,99469.03
2023-03-03T06:15:52.693Z,99474.07
2023-03-03T06:16:56.833Z,99476.45
2023-03-03T06:18:00.985Z,99481.92
2023-03-03T06:19:05.084Z,99485.2
2023-03-03T06:20:09.187Z,99472.92
2023-03-03T06:21:13.288Z,99469.8
2023-03-03T06:22:17.505Z,99485.17
2023-03-03T06:23:21.631Z,99485.7
2023-03-03T06:24:25.747Z,99485.8
2023-03-03T06:25:29.883Z,99489.83
2023-03-03T06:26:34.013Z,99490.54
2023-03-03T06:27:38.133Z,99492.81
2023-03-03T06:28:42.242Z,99500
2023-03-03T06:29:46.364Z,99501.97
2023-03-03T06:30:50.506Z,99504.73
2023-03-03T06:31:54.928Z,99507
2023-03-03T06:32:59.305Z,99508.94
2023-03-03T06:34:03.442Z,99507.3
2023-03-03T06:35:07.563Z,99506.97
2023-03-03T06:36:11.692Z,99506.67
2023-03-03T06:37:15.779Z,99512.52
2023-03-03T06:38:19.900Z,99522.95
2023-03-03T06:39:24.035Z,99520.27
2023-03-03T06:40:28.158Z,99518.7
2023-03-03T06:41:32.256Z,99521.49
2023-03-03T06:42:36.374Z,99529.2
2023-03-03T06:43:40.517Z,99520.11
2023-03-03T06:44:44.662Z,99520.3
2023-03-03T06:45:48.937Z,99526.3
2023-03-03T06:46:53.194Z,99516.17
2023-03-03T06:47:57.438Z,99482.77
2023-03-03T06:49:01.681Z,99512.22
2023-03-03T06:50:05.868Z,99518.41
2023-03-03T06:51:09.995Z,99517.17
2023-03-03T06:52:14.152Z,99513
2023-03-03T06:53:18.318Z,99526.45
2023-03-03T06:54:23.882Z,99519.3
2023-03-03T06:55:32.045Z,99515.69
2023-03-03T06:56:36.165Z,99516.61
2023-03-03T06:57:40.260Z,99514.34
2023-03-03T06:58:44.415Z,99507.09
2023-03-03T06:59:48.537Z,99494.17
2023-03-03T07:00:52.869Z,99506.83
2023-03-03T07:01:57.019Z,99504.22
2023-03-03T07:03:01.138Z,99501.73
2023-03-03T07:04:05.299Z,99499.16
2023-03-03T07:05:09.526Z,99504.7
2023-03-03T07:06:13.635Z,99506.56
2023-03-03T07:07:17.729Z,99500.45
2023-03-03T07:08:21.824Z,99505
2023-03-03T07:09:25.983Z,99506
2023-03-03T07:10:30.215Z,99506.41
2023-03-03T07:11:34.446Z,99516.23
2023-03-03T07:12:38.561Z,99497.73
2023-03-03T07:13:42.668Z,99501.12
2023-03-03T07:14:46.782Z,99498.37
2023-03-03T07:15:50.933Z,99501.88
2023-03-03T07:16:55.150Z,99494.2
2023-03-03T07:17:59.350Z,99496.25
2023-03-03T07:19:03.469Z,99487.69
2023-03-03T07:20:07.589Z,99491.45
2023-03-03T07:21:12.048Z,99485.64
2023-03-03T07:22:16.167Z,99494.91
2023-03-03T07:23:20.273Z,99486.79
2023-03-03T07:24:24.395Z,99476.78
2023-03-03T07:25:28.538Z,99470.34
2023-03-03T07:26:32.653Z,99467.36
2023-03-03T07:27:36.748Z,99476.11
2023-03-03T07:28:40.875Z,99486.83
2023-03-03T07:29:44.965Z,99485.94
2023-03-03T07:30:49.168Z,99489.73
2023-03-03T07:31:53.460Z,99488.05
2023-03-03T07:32:57.687Z,99485.89
2023-03-03T07:34:01.823Z,99488.05
2023-03-03T07:35:05.930Z,99487.53
2023-03-03T07:36:10.034Z,99491.33
2023-03-03T07:37:14.133Z,99482.99
2023-03-03T07:38:18.334Z,99489.77
2023-03-03T07:39:23.049Z,99485.11
2023-03-03T07:40:27.244Z,99492.45
2023-03-03T07:41:31.514Z,99475.51
2023-03-03T07:42:35.636Z,99467.8
2023-03-03T07:43:39.898Z,99464.09
2023-03-03T07:44:44.055Z,99465.42
2023-03-03T07:45:48.218Z,99457.8
2023-03-03T07:46:52.390Z,99459.66
2023-03-03T07:47:56.508Z,99453.48
2023-03-03T07:49:00.630Z,99454.41
2023-03-03T07:50:04.753Z,99444.44
2023-03-03T07:51:08.918Z,99461.41
2023-03-03T07:52:13.040Z,99464.3
2023-03-03T07:53:17.187Z,99467.87
2023-03-03T07:54:21.399Z,99464.02
2023-03-03T07:55:25.530Z,99468.09
2023-03-03T07:56:29.668Z,99461.33
2023-03-03T07:57:33.818Z,99466.53
2023-03-03T07:58:37.918Z,99466.69
2023-03-03T07:59:42.060Z,99462.11
2023-03-03T08:00:46.254Z,99459.5
2023-03-03T08:01:50.494Z,99457.83
2023-03-03T08:02:54.649Z,99451.32
2023-03-03T08:03:58.920Z,99453.07
2023-03-03T08:05:06.185Z,99453.89
2023-03-03T08:06:10.557Z,99449.12
2023-03-03T08:07:14.660Z,99453.59
2023-03-03T08:08:18.803Z,99447.16
2023-03-03T08:09:22.996Z,99462.11
2023-03-03T08:10:27.215Z,99457.69
2023-03-03T08:11:31.503Z,99458.31
2023-03-03T08:12:35.690Z,99469.03
2023-03-03T08:13:39.808Z,99464.56
2023-03-03T08:14:43.977Z,99460.25
2023-03-03T08:15:48.185Z,99451.28
2023-03-03T08:16:52.440Z,99442.39
2023-03-03T08:17:56.555Z,99445.29
2023-03-03T08:19:00.695Z,99443.95
2023-03-03T08:20:04.781Z,99441.98
2023-03-03T08:21:08.918Z,99434.46
2023-03-03T08:22:13.097Z,99444.03
2023-03-03T08:23:17.209Z,99441.45
2023-03-03T08:24:21.361Z,99449.68
2023-03-03T08:25:25.506Z,99438.25
2023-03-03T08:26:29.643Z,99428.66
2023-03-03T08:27:33.738Z,99445.99
2023-03-03T08:28:37.843Z,99442.13
2023-03-03T08:29:42.022Z,99458.57
2023-03-03T08:30:46.346Z,99463.92
2023-03-03T08:31:50.632Z,99459.16
2023-03-03T08:32:54.982Z,99468.54
2023-03-03T08:33:59.178Z,99467.56
2023-03-03T08:35:03.297Z,99461.05
2023-03-03T08:36:08.468Z,99470.98
2023-03-03T08:37:12.585Z,99468.09
2023-03-03T08:38:16.740Z,99465.47
2023-03-03T08:39:20.886Z,99479.32
2023-03-03T08:40:25.030Z,99481.55
2023-03-03T08:41:29.229Z,99487.43
2023-03-03T08:42:33.380Z,99485.86
2023-03-03T08:43:37.577Z,99483.93
2023-03-03T08:44:41.702Z,99478.34
2023-03-03T08:45:45.822Z,99469.98
2023-03-03T08:46:50.014Z,99466.7
2023-03-03T08:47:54.259Z,99466.63
2023-03-03T08:48:58.356Z,99459.48
2023-03-03T08:50:02.596Z,99454.13
2023-03-03T08:51:06.755Z,99469.97
2023-03-03T08:52:10.892Z,99465.44
2023-03-03T08:53:15.005Z,99473.59
2023-03-03T08:54:19.144Z,99476.45
2023-03-03T08:55:23.494Z,99470.27
2023-03-03T08:56:27.666Z,99468.3
2023-03-03T08:57:31.779Z,99471.31
2023-03-03T08:58:37.501Z,99477.26
2023-03-03T08:59:41.662Z,99475.59
2023-03-03T09:00:51.192Z,99474.54
2023-03-03T09:01:56.354Z,99485.63
2023-03-03T09:03:00.597Z,99477.96
2023-03-03T09:04:04.722Z,99484.14
2023-03-03T09:05:08.955Z,99487.15
2023-03-03T09:06:13.066Z,99488.97
2023-03-03T09:07:17.209Z,99489.49
2023-03-03T09:08:21.317Z,99488.75
2023-03-03T09:09:25.531Z,99486.17
2023-03-03T09:10:29.639Z,99490.2
2023-03-03T09:11:33.748Z,99479.03
2023-03-03T09:12:37.905Z,99478.62
2023-03-03T09:13:42.028Z,99485.13
2023-03-03T09:14:46.169Z,99487.47
2023-03-03T09:15:50.659Z,99486.13
2023-03-03T09:16:54.893Z,99483.37
2023-03-03T09:17:59.044Z,99494.8
2023-03-03T09:19:03.150Z,99493.68
2023-03-03T09:20:07.275Z,99499.94
2023-03-03T09:21:11.386Z,99498.3
2023-03-03T09:22:15.506Z,99495.61
2023-03-03T09:23:19.646Z,99490.11
2023-03-03T09:24:23.800Z,99490.84
2023-03-03T09:25:27.934Z,99486.61
2023-03-03T09:26:32.089Z,99488.77
2023-03-03T09:27:36.315Z,99493.94
2023-03-03T09:28:40.611Z,99492.14
2023-03-03T09:29:44.711Z,99484.22
2023-03-03T09:30:48.814Z,99489.28
2023-03-03T09:31:53.349Z,99482.18
2023-03-03T09:32:57.739Z,99471.84
2023-03-03T09:34:01.859Z,99473.88
2023-03-03T09:35:05.952Z,99474.1
2023-03-03T09:36:10.079Z,99475.48
2023-03-03T09:37:16.438Z,99472.69
2023-03-03T09:38:20.581Z,99475.08
2023-03-03T09:39:24.714Z,99469.72
2023-03-03T09:40:28.815Z,99467.97
2023-03-03T09:41:33.006Z,99470.99
2023-03-03T09:42:37.117Z,99463.48
2023-03-03T09:43:41.245Z,99466.2
2023-03-03T09:44:45.375Z,99469.74
2023-03-03T09:45:49.498Z,99482.37
2023-03-03T09:46:53.848Z,99478.34
2023-03-03T09:47:58.055Z,99472.88
2023-03-03T09:49:02.163Z,99476.23
2023-03-03T09:50:06.286Z,99478.36
2023-03-03T09:51:10.444Z,99480
2023-03-03T09:52:14.582Z,99480.63
2023-03-03T09:53:18.708Z,99485.41
2023-03-03T09:54:22.854Z,99474.34
2023-03-03T09:55:26.996Z,99485.37
2023-03-03T09:56:31.156Z,99484.06
2023-03-03T09:57:35.408Z,99483.14
2023-03-03T09:58:39.573Z,99488.13
2023-03-03T09:59:43.672Z,99485.05
2023-03-03T10:00:47.796Z,99491.3
2023-03-03T10:01:51.956Z,99490.95
2023-03-03T10:02:58.425Z,99484.27
2023-03-03T10:04:02.854Z,99486.98
2023-03-03T10:05:07.068Z,99473.92
2023-03-03T10:06:11.220Z,99472.02
2023-03-03T10:07:15.372Z,99473.63
2023-03-03T10:08:19.472Z,99489.14
2023-03-03T10:09:23.614Z,99489.14
2023-03-03T10:10:27.872Z,99475.81
2023-03-03T10:11:32.013Z,99488.4
2023-03-03T10:12:36.126Z,99479.69
2023-03-03T10:13:40.228Z,99485.27
2023-03-03T10:14:44.323Z,99490.11
2023-03-03T10:15:48.786Z,99487.88
2023-03-03T10:16:54.048Z,99492.08
2023-03-03T10:17:58.288Z,99484.19
2023-03-03T10:19:02.408Z,99488.31
2023-03-03T10:20:06.507Z,99491.59
2023-03-03T10:21:10.607Z,99492.38
2023-03-03T10:22:14.761Z,99485.23
2023-03-03T10:23:18.891Z,99496.51
2023-03-03T10:24:23.010Z,99492.48
2023-03-03T10:25:27.211Z,99498.23
2023-03-03T10:26:49.121Z,99485.86
2023-03-03T10:28:15.002Z,99480.84
2023-03-03T10:29:23.847Z,99475.37
2023-03-03T10:30:51.347Z,99440.75
2023-03-03T10:32:09.305Z,99493.16
2023-03-03T10:33:14.653Z,99494.2
2023-03-03T10:34:19.704Z,99500.31
2023-03-03T10:35:23.946Z,99506.37
2023-03-03T10:36:31.364Z,99514.02
2023-03-03T10:37:36.578Z,99508.2
2023-03-03T10:38:41.143Z,99510.7
2023-03-03T10:39:45.301Z,99507.8
2023-03-03T10:40:49.403Z,99502.95
2023-03-03T10:41:53.538Z,99512.11
2023-03-03T10:42:57.714Z,99507.76
2023-03-03T10:44:02.089Z,99503.44
2023-03-03T10:45:06.240Z,99504.33
2023-03-03T10:46:10.474Z,99508.35
2023-03-03T10:47:14.697Z,99504.03
2023-03-03T10:48:18.856Z,99510.66
2023-03-03T10:49:22.967Z,99498.74
2023-03-03T10:50:27.117Z,99504.33
2023-03-03T10:51:31.226Z,99499.86
2023-03-03T10:52:35.353Z,99504.66
2023-03-03T10:53:39.452Z,99504.25
2023-03-03T10:54:43.662Z,99509.05
2023-03-03T10:55:47.769Z,99502.2
2023-03-03T10:56:54.651Z,99506.96
2023-03-03T10:57:58.901Z,99513.7
2023-03-03T10:59:03.267Z,99505.02
2023-03-03T11:00:07.432Z,99512.05
2023-03-03T11:01:11.698Z,99505.46
2023-03-03T11:02:15.992Z,99511.67
2023-03-03T11:03:20.142Z,99509.22
2023-03-03T11:04:24.516Z,99516.44
2023-03-03T11:05:28.765Z,99514.58
2023-03-03T11:06:32.961Z,99509.55
2023-03-03T11:07:37.143Z,99511.52
2023-03-03T11:08:41.276Z,99508.8
2023-03-03T11:09:45.392Z,99518.41
2023-03-03T11:10:49.526Z,99516.14
2023-03-03T11:11:53.618Z,99520.24
2023-03-03T11:12:57.751Z,99515.18
2023-03-03T11:14:02.240Z,99524.68
2023-03-03T11:15:06.444Z,99521.03
2023-03-03T11:16:10.601Z,99516.79
2023-03-03T11:17:14.856Z,99519.17
2023-03-03T11:18:19.113Z,99522.45
2023-03-03T11:19:26.931Z,99523.52
2023-03-03T11:20:31.066Z,99525.39
2023-03-03T11:21:35.226Z,99522
2023-03-03T11:22:39.428Z,99530.53
2023-03-03T11:23:43.535Z,99526.13
2023-03-03T11:24:47.708Z,99520.17
2023-03-03T11:25:52.031Z,99518.3
2023-03-03T11:26:56.190Z,99522.63
2023-03-03T11:28:00.321Z,99522.22
2023-03-03T11:29:04.451Z,99519.56
2023-03-03T11:30:08.622Z,99521.76
2023-03-03T11:31:12.840Z,99528.41
2023-03-03T11:32:17.314Z,99532.22
2023-03-03T11:33:21.724Z,99528.2
2023-03-03T11:34:25.829Z,99528.72
2023-03-03T11:35:30.096Z,99514.27
2023-03-03T11:36:36.044Z,99517.36
2023-03-03T11:37:40.253Z,99511.25
2023-03-03T11:38:44.391Z,99511.3
2023-03-03T11:39:48.557Z,99505.52
2023-03-03T11:40:52.668Z,99509.22
2023-03-03T11:41:56.807Z,99508.8
2023-03-03T11:43:00.958Z,99505.38
2023-03-03T11:44:05.176Z,99516.33
2023-03-03T11:45:09.339Z,99517.86
2023-03-03T11:46:13.535Z,99519.53
2023-03-03T11:47:17.747Z,99516.74
2023-03-03T11:48:21.859Z,99511.27
2023-03-03T11:49:25.986Z,99511.48
2023-03-03T11:50:30.085Z,99512.04
2023-03-03T11:51:34.258Z,99518.48
2023-03-03T11:52:38.379Z,99507.91
2023-03-03T11:53:42.489Z,99510.43
2023-03-03T11:54:46.637Z,99514.18
2023-03-03T11:55:50.735Z,99513.47
2023-03-03T11:56:54.826Z,99517.64
2023-03-03T11:57:58.943Z,99509.58
2023-03-03T11:59:03.035Z,99511.25
2023-03-03T12:00:07.136Z,99513.34
2023-03-03T12:01:11.291Z,99510.23
2023-03-03T12:02:15.451Z,99510.98
2023-03-03T12:03:19.656Z,99501.89
2023-03-03T12:04:23.797Z,99508.59
2023-03-03T12:05:28.009Z,99512.63
2023-03-03T12:06:32.192Z,99512.21
2023-03-03T12:07:36.483Z,99495.89
2023-03-03T12:08:40.611Z,99504.63
2023-03-03T12:09:44.815Z,99508.43
2023-03-03T12:10:48.923Z,99495.02
2023-03-03T12:11:55.081Z,99502.66
2023-03-03T12:12:59.183Z,99500.36
2023-03-03T12:14:03.423Z,99501.09
2023-03-03T12:15:07.551Z,99498.63
2023-03-03T12:16:11.769Z,99509.25
2023-03-03T12:17:15.953Z,99502
2023-03-03T12:18:20.074Z,99503.37
2023-03-03T12:19:24.243Z,99496.25
2023-03-03T12:20:28.344Z,99499.7
2023-03-03T12:21:32.485Z,99496.2
2023-03-03T12:22:36.573Z,99501.56
2023-03-03T12:23:40.671Z,99500.73
2023-03-03T12:24:44.842Z,99496.11
2023-03-03T12:25:48.982Z,99500.77
2023-03-03T12:26:53.086Z,99500.48
2023-03-03T12:27:57.206Z,99500.19
2023-03-03T12:29:01.394Z,99505.97
2023-03-03T12:30:06.470Z,99512.05
2023-03-03T12:31:10.766Z,99507.2
2023-03-03T12:32:15.081Z,99509.77
2023-03-03T12:33:19.285Z,99500.27
2023-03-03T12:34:23.398Z,99500.44
2023-03-03T12:35:27.581Z,99505.5
2023-03-03T12:36:31.813Z,99508.79
2023-03-03T12:37:35.922Z,99498.58
2023-03-03T12:38:40.076Z,99506.63